Time;durP1;ratioP1;P1;durP2;ratioP2;P2;SDS_P1;SDS_P2;PMS_P1;PMS_P2;Temp;Humidity;BMP_temperature;BMP_pressure;BME280_temperature;BME280_humidity;BME280_pressure;Samples;Min_cycle;Max_cycle;Signal;HPM_P1;HPM_P2
2021/09/18 00:01:40;;;;;;;1999.90;999.90;;;10.50;99.90;;;;;;5093789;28;20025;-82
2021/09/18 00:04:05;;;;;;;1999.90;999.90;;;10.50;99.90;;;;;;5094774;28;20028;-83
2021/09/18 00:06:35;;;;;;;1999.90;999.90;;;10.50;99.90;;;;;;5093502;28;20028;-84
2021/09/18 00:09:02;;;;;;;1999.90;999.90;;;10.50;99.90;;;;;;5094545;28;20027;-84
2021/09/18 00:11:27;;;;;;;1999.90;999.90;;;10.50;99.90;;;;;;5093432;28;20028;-83
2021/09/18 00:13:53;;;;;;;1999.90;999.90;;;10.50;99.90;;;;;;5094445;28;20763;-80
2021/09/18 00:16:19;;;;;;;1999.90;999.90;;;10.60;99.90;;;;;;5093196;28;20118;-79
2021/09/18 00:18:44;;;;;;;1999.90;999.90;;;10.60;99.90;;;;;;5094939;28;20048;-83
2021/09/18 00:21:10;;;;;;;1999.90;999.90;;;10.60;99.90;;;;;;5094062;28;20040;-82
2021/09/18 00:23:36;;;;;;;1999.90;999.90;;;10.50;99.90;;;;;;5093020;28;20016;-84
2021/09/18 00:26:01;;;;;;;1999.90;999.90;;;10.40;99.90;;;;;;5093578;28;20036;-84
2021/09/18 00:28:27;;;;;;;1999.90;999.90;;;10.40;99.90;;;;;;5093207;28;20023;-85
2021/09/18 00:30:54;;;;;;;1999.90;999.90;;;10.40;99.90;;;;;;5093524;28;20028;-85
2021/09/18 00:33:19;;;;;;;1999.90;999.90;;;10.50;99.90;;;;;;5094111;28;20114;-87
2021/09/18 00:35:45;;;;;;;1999.90;999.90;;;10.40;99.90;;;;;;5093149;28;20066;-87
2021/09/18 00:38:12;;;;;;;1999.90;999.90;;;10.30;99.90;;;;;;5094283;28;20460;-86
2021/09/18 00:40:38;;;;;;;1999.90;999.90;;;10.40;99.90;;;;;;5093115;28;20081;-85
2021/09/18 00:43:04;;;;;;;1999.90;999.90;;;10.40;99.90;;;;;;5093131;28;20020;-85
2021/09/18 00:45:30;;;;;;;1999.90;999.90;;;10.40;99.90;;;;;;5094396;28;20381;-85
2021/09/18 00:47:56;;;;;;;1999.90;999.90;;;10.30;99.90;;;;;;5093349;28;20039;-82
2021/09/18 00:50:21;;;;;;;1999.90;999.90;;;10.20;99.90;;;;;;5093785;28;20036;-83
2021/09/18 00:52:48;;;;;;;1999.90;999.90;;;10.40;99.90;;;;;;5094506;28;20020;-82
2021/09/18 00:55:16;;;;;;;1999.90;999.90;;;10.30;99.90;;;;;;5094107;28;20038;-84
2021/09/18 00:57:42;;;;;;;1999.90;999.90;;;10.30;99.90;;;;;;5094221;28;20115;-82
2021/09/18 01:00:10;;;;;;;1999.90;999.90;;;10.30;99.90;;;;;;5094882;28;20439;-82
2021/09/18 01:02:36;;;;;;;1999.90;999.90;;;10.20;99.90;;;;;;5093396;28;20148;-81
2021/09/18 01:05:04;;;;;;;1999.90;999.90;;;10.20;99.90;;;;;;5093284;28;20032;-82
2021/09/18 01:07:30;;;;;;;1999.90;999.90;;;10.20;99.90;;;;;;5093589;28;20017;-81
2021/09/18 01:09:57;;;;;;;1999.90;999.90;;;10.10;99.90;;;;;;5093296;28;20052;-84
2021/09/18 01:12:22;;;;;;;1999.90;999.90;;;10.00;99.90;;;;;;5092972;28;20016;-83
2021/09/18 01:14:49;;;;;;;1999.90;999.90;;;10.00;99.90;;;;;;5094343;28;20028;-85
2021/09/18 01:17:15;;;;;;;1999.90;999.90;;;10.00;99.90;;;;;;5092828;28;20031;-85
2021/09/18 01:19:42;;;;;;;1999.90;999.90;;;10.00;99.90;;;;;;5093623;28;20016;-81
2021/09/18 01:22:08;;;;;;;1999.90;999.90;;;9.90;99.90;;;;;;5096626;28;20052;-84
2021/09/18 01:24:34;;;;;;;1999.90;999.90;;;9.90;99.90;;;;;;5096304;28;20028;-83
2021/09/18 01:27:00;;;;;;;1999.90;999.90;;;10.00;99.90;;;;;;5097010;28;20020;-85
2021/09/18 01:29:26;;;;;;;1999.90;999.90;;;10.00;99.90;;;;;;5096639;28;20485;-86
2021/09/18 01:31:52;;;;;;;1999.90;999.90;;;9.90;99.90;;;;;;5096454;28;20063;-81
2021/09/18 01:34:22;;;;;;;1999.90;999.90;;;9.90;99.90;;;;;;5096658;28;20043;-82
2021/09/18 01:36:49;;;;;;;1999.90;999.90;;;9.90;99.90;;;;;;5096166;28;20017;-80
2021/09/18 01:39:15;;;;;;;1999.90;999.90;;;9.90;99.90;;;;;;5096411;28;20024;-82
2021/09/18 01:41:43;;;;;;;1999.90;999.90;;;9.90;99.90;;;;;;5097841;28;20036;-83
2021/09/18 01:44:10;;;;;;;1999.90;999.90;;;9.90;99.90;;;;;;5096135;28;20031;-81
2021/09/18 01:46:36;;;;;;;1999.90;999.90;;;9.80;99.90;;;;;;5097345;28;20063;-81
2021/09/18 01:49:02;;;;;;;1999.90;999.90;;;9.80;99.90;;;;;;5096931;28;20059;-83
2021/09/18 01:51:30;;;;;;;1999.90;999.90;;;9.70;99.90;;;;;;5097485;28;20024;-86
2021/09/18 01:53:56;;;;;;;1999.90;999.90;;;9.70;99.90;;;;;;5095975;28;20028;-80
2021/09/18 01:56:22;;;;;;;1999.90;999.90;;;9.70;99.90;;;;;;5095895;28;20020;-81
2021/09/18 01:58:49;;;;;;;1999.90;999.90;;;9.80;99.90;;;;;;5096112;28;20028;-84
2021/09/18 02:01:15;;;;;;;1999.90;999.90;;;9.70;99.90;;;;;;5096174;28;20031;-87
2021/09/18 02:03:41;;;;;;;1999.90;999.90;;;9.70;99.90;;;;;;5097246;28;20031;-83
2021/09/18 02:06:07;;;;;;;1999.90;999.90;;;9.60;99.90;;;;;;5097145;28;20114;-83
2021/09/18 02:08:32;;;;;;;1999.90;999.90;;;9.60;99.90;;;;;;5095875;28;20088;-84
2021/09/18 02:10:58;;;;;;;1999.90;999.90;;;9.70;99.90;;;;;;5096140;28;20032;-82
2021/09/18 02:13:25;;;;;;;1999.90;999.90;;;9.60;99.90;;;;;;5095680;28;20409;-81
2021/09/18 02:15:51;;;;;;;1999.90;999.90;;;9.60;99.90;;;;;;5095752;28;20124;-83
2021/09/18 02:18:17;;;;;;;1999.90;999.90;;;9.60;99.90;;;;;;5097033;28;20060;-81
2021/09/18 02:20:43;;;;;;;1999.90;999.90;;;9.60;99.90;;;;;;5095601;28;20139;-81
2021/09/18 02:23:11;;;;;;;1999.90;999.90;;;9.70;99.90;;;;;;5095440;28;20115;-82
2021/09/18 02:25:37;;;;;;;1999.90;999.90;;;9.70;99.90;;;;;;5095225;28;20040;-82
2021/09/18 02:28:04;;;;;;;1999.90;999.90;;;9.70;99.90;;;;;;5095287;28;20020;-80
2021/09/18 02:30:33;;;;;;;1999.90;999.90;;;9.70;99.90;;;;;;5096763;28;20042;-82
2021/09/18 02:32:59;;;;;;;1999.90;999.90;;;9.60;99.90;;;;;;5095033;28;20017;-82
2021/09/18 02:35:27;;;;;;;1999.90;999.90;;;9.60;99.90;;;;;;5094941;28;20024;-83
2021/09/18 02:37:54;;;;;;;1999.90;999.90;;;9.50;99.90;;;;;;5094771;28;20016;-83
2021/09/18 02:40:21;;;;;;;1999.90;999.90;;;9.50;99.90;;;;;;5095292;28;20085;-85
2021/09/18 02:42:49;;;;;;;1999.90;999.90;;;9.40;99.90;;;;;;5095109;28;20030;-86
2021/09/18 02:45:16;;;;;;;1999.90;999.90;;;9.40;99.90;;;;;;5096241;28;20082;-85
2021/09/18 02:47:42;;;;;;;1999.90;999.90;;;9.40;99.90;;;;;;5095080;28;20016;-80
2021/09/18 02:50:10;;;;;;;1999.90;999.90;;;9.40;99.90;;;;;;5094944;28;20027;-82
2021/09/18 02:52:36;;;;;;;1999.90;999.90;;;9.30;99.90;;;;;;5095832;28;20028;-86
2021/09/18 02:55:02;;;;;;;1999.90;999.90;;;9.20;99.90;;;;;;5095034;28;20494;-80
2021/09/18 02:57:28;;;;;;;1999.90;999.90;;;9.20;99.90;;;;;;5094397;28;20077;-80
2021/09/18 02:59:53;;;;;;;1999.90;999.90;;;9.20;99.90;;;;;;5094417;28;20023;-80
2021/09/18 03:02:19;;;;;;;1999.90;999.90;;;9.10;99.90;;;;;;5094563;28;20028;-82
2021/09/18 03:04:45;;;;;;;1999.90;999.90;;;9.10;99.90;;;;;;5094084;28;20131;-82
2021/09/18 03:07:11;;;;;;;1999.90;999.90;;;9.10;99.90;;;;;;5094140;28;20368;-81
2021/09/18 03:09:36;;;;;;;1999.90;999.90;;;9.00;99.90;;;;;;5094727;28;20135;-79
2021/09/18 03:12:02;;;;;;;1999.90;999.90;;;8.90;99.90;;;;;;5094474;28;20432;-79
2021/09/18 03:14:28;;;;;;;1999.90;999.90;;;8.90;99.90;;;;;;5094203;28;20051;-80
2021/09/18 03:16:53;;;;;;;1999.90;999.90;;;8.80;99.90;;;;;;5094063;28;20031;-84
2021/09/18 03:19:19;;;;;;;1999.90;999.90;;;8.80;99.90;;;;;;5095222;28;20030;-82
2021/09/18 03:21:45;;;;;;;1999.90;999.90;;;8.90;99.90;;;;;;5093990;28;20098;-82
2021/09/18 03:24:13;;;;;;;1999.90;999.90;;;8.90;99.90;;;;;;5093713;28;20379;-85
2021/09/18 03:26:43;;;;;;;1999.90;999.90;;;8.90;99.90;;;;;;5095315;28;20028;-80
2021/09/18 03:29:12;;;;;;;1999.90;999.90;;;9.00;99.90;;;;;;5093883;28;20024;-83
2021/09/18 03:31:39;;;;;;;1999.90;999.90;;;9.00;99.90;;;;;;5094999;28;20025;-79
2021/09/18 03:34:06;;;;;;;1999.90;999.90;;;9.00;99.90;;;;;;5095364;28;20020;-82
2021/09/18 03:36:32;;;;;;;1999.90;999.90;;;9.10;99.90;;;;;;5094287;28;20032;-81
2021/09/18 03:38:58;;;;;;;1999.90;999.90;;;9.10;99.90;;;;;;5094122;28;20042;-81
2021/09/18 03:41:24;;;;;;;1999.90;999.90;;;9.10;99.90;;;;;;5094031;28;20024;-81
2021/09/18 03:43:49;;;;;;;1999.90;999.90;;;9.00;99.90;;;;;;5094741;28;20431;-80
2021/09/18 03:46:15;;;;;;;1999.90;999.90;;;9.00;99.90;;;;;;5095309;28;20403;-83
2021/09/18 03:48:41;;;;;;;1999.90;999.90;;;8.90;99.90;;;;;;5095136;28;20031;-82
2021/09/18 03:51:07;;;;;;;1999.90;999.90;;;8.90;99.90;;;;;;5093707;28;20348;-80
2021/09/18 03:53:33;;;;;;;1999.90;999.90;;;8.90;99.90;;;;;;5095068;28;20084;-81
2021/09/18 03:55:59;;;;;;;1999.90;999.90;;;8.90;99.90;;;;;;5094826;28;20020;-80
2021/09/18 03:58:25;;;;;;;1999.90;999.90;;;8.80;99.90;;;;;;5093438;28;20031;-81
2021/09/18 04:00:51;;;;;;;1999.90;999.90;;;8.80;99.90;;;;;;5094299;28;20024;-85
2021/09/18 04:03:17;;;;;;;1999.90;999.90;;;8.70;99.90;;;;;;5094070;28;20027;-80
2021/09/18 04:05:42;;;;;;;1999.90;999.90;;;8.70;99.90;;;;;;5092788;28;20121;-82
2021/09/18 04:08:09;;;;;;;1999.90;999.90;;;8.70;99.90;;;;;;5093510;28;20218;-80
2021/09/18 04:10:36;;;;;;;1999.90;999.90;;;8.70;99.90;;;;;;5093163;28;20024;-81
2021/09/18 04:13:02;;;;;;;1999.90;999.90;;;8.70;99.90;;;;;;5093990;28;20043;-81
2021/09/18 04:15:28;;;;;;;1999.90;999.90;;;8.80;99.90;;;;;;5093028;28;20028;-79
2021/09/18 04:17:54;;;;;;;1999.90;999.90;;;8.80;99.90;;;;;;5093127;28;20024;-82
2021/09/18 04:20:19;;;;;;;1999.90;999.90;;;8.80;99.90;;;;;;5092484;28;20031;-82
2021/09/18 04:22:45;;;;;;;1999.90;999.90;;;8.80;99.90;;;;;;5092725;28;20111;-81
2021/09/18 04:25:11;;;;;;;1999.90;999.90;;;8.80;99.90;;;;;;5092809;28;20112;-81
2021/09/18 04:27:37;;;;;;;1999.90;999.90;;;8.80;99.90;;;;;;5092386;28;20028;-79
2021/09/18 04:30:04;;;;;;;1999.90;999.90;;;8.80;99.90;;;;;;5092488;28;20031;-80
2021/09/18 04:32:30;;;;;;;1999.90;999.90;;;8.70;99.90;;;;;;5093956;28;20533;-84
2021/09/18 04:34:56;;;;;;;1999.90;999.90;;;8.70;99.90;;;;;;5092112;28;20032;-79
2021/09/18 04:37:22;;;;;;;1999.90;999.90;;;8.60;99.90;;;;;;5093755;28;20028;-81
2021/09/18 04:39:48;;;;;;;1999.90;999.90;;;8.70;99.90;;;;;;5092701;28;20020;-80
2021/09/18 04:42:13;;;;;;;1999.90;999.90;;;8.70;99.90;;;;;;5093726;28;20356;-82
2021/09/18 04:44:39;;;;;;;1999.90;999.90;;;8.70;99.90;;;;;;5092411;28;20045;-80
2021/09/18 04:47:05;;;;;;;1999.90;999.90;;;8.70;99.90;;;;;;5091879;28;20375;-83
2021/09/18 04:49:31;;;;;;;1999.90;999.90;;;8.60;99.90;;;;;;5092646;28;20016;-80
2021/09/18 04:51:56;;;;;;;1999.90;999.90;;;8.60;99.90;;;;;;5093226;28;20035;-79
2021/09/18 04:54:22;;;;;;;1999.90;999.90;;;9.50;99.90;;;;;;5091420;28;20464;-80
2021/09/18 04:56:48;;;;;;;1999.90;999.90;;;9.30;99.90;;;;;;5096745;28;20463;-81
2021/09/18 04:59:13;;;;;;;1999.90;999.90;;;9.10;99.90;;;;;;5095311;28;20171;-78
2021/09/18 05:01:39;;;;;;;1999.90;999.90;;;9.00;99.90;;;;;;5092244;28;20502;-79
2021/09/18 05:04:04;;;;;;;1999.90;999.90;;;8.90;99.90;;;;;;5092870;28;20340;-85
2021/09/18 05:06:30;;;;;;;1999.90;999.90;;;8.80;99.90;;;;;;5092588;28;20047;-82
2021/09/18 05:08:56;;;;;;;1999.90;999.90;;;8.80;99.90;;;;;;5090991;28;20012;-79
2021/09/18 05:11:21;;;;;;;1999.90;999.90;;;8.70;99.90;;;;;;5091304;28;20016;-78
2021/09/18 05:13:47;;;;;;;1999.90;999.90;;;8.70;99.90;;;;;;5091485;28;20032;-78
2021/09/18 05:16:13;;;;;;;1999.90;999.90;;;8.60;99.90;;;;;;5092925;28;20020;-78
2021/09/18 05:18:38;;;;;;;1999.90;999.90;;;8.60;99.90;;;;;;5091534;28;20020;-84
2021/09/18 05:21:04;;;;;;;1999.90;999.90;;;8.70;99.90;;;;;;5092017;28;20048;-78
2021/09/18 05:23:30;;;;;;;1999.90;999.90;;;8.70;99.90;;;;;;5091704;28;20055;-80
2021/09/18 05:25:55;;;;;;;1999.90;999.90;;;8.60;99.90;;;;;;5091505;28;20036;-84
2021/09/18 05:28:21;;;;;;;1999.90;999.90;;;8.70;99.90;;;;;;5092123;28;20120;-81
2021/09/18 05:30:47;;;;;;;1999.90;999.90;;;8.70;99.90;;;;;;5091922;28;20502;-82
2021/09/18 05:33:12;;;;;;;1999.90;999.90;;;8.70;99.90;;;;;;5092918;28;20030;-78
2021/09/18 05:35:38;;;;;;;1999.90;999.90;;;8.70;99.90;;;;;;5091348;28;20111;-80
2021/09/18 05:38:04;;;;;;;1999.90;999.90;;;8.70;99.90;;;;;;5091531;28;20020;-78
2021/09/18 05:40:30;;;;;;;1999.90;999.90;;;8.80;99.90;;;;;;5092768;28;20112;-80
2021/09/18 05:42:56;;;;;;;1999.90;999.90;;;8.90;99.90;;;;;;5091956;28;20120;-81
2021/09/18 05:45:21;;;;;;;1999.90;999.90;;;8.90;99.90;;;;;;5090858;28;20059;-79
2021/09/18 05:47:47;;;;;;;1999.90;999.90;;;8.90;99.90;;;;;;5091362;28;20115;-80
2021/09/18 05:50:13;;;;;;;1999.90;999.90;;;9.00;99.90;;;;;;5091627;28;20024;-81
2021/09/18 05:52:39;;;;;;;1999.90;999.90;;;9.10;99.90;;;;;;5092466;28;20024;-80
2021/09/18 05:55:05;;;;;;;1999.90;999.90;;;9.20;99.90;;;;;;5091987;28;20028;-79
2021/09/18 05:57:31;;;;;;;1999.90;999.90;;;9.40;99.90;;;;;;5092046;28;20047;-83
2021/09/18 05:59:56;;;;;;;1999.90;999.90;;;9.50;99.90;;;;;;5092807;28;20659;-79
2021/09/18 06:02:23;;;;;;;1999.90;999.90;;;9.50;99.90;;;;;;5092042;28;20586;-81
2021/09/18 06:04:49;;;;;;;1999.90;999.90;;;9.60;99.90;;;;;;5091547;28;20383;-84
2021/09/18 06:07:15;;;;;;;1999.90;999.90;;;9.70;99.90;;;;;;5094089;28;20089;-83
2021/09/18 06:09:41;;;;;;;1999.90;999.90;;;9.90;99.90;;;;;;5096322;28;20024;-80
2021/09/18 06:12:06;;;;;;;1999.90;999.90;;;9.90;99.90;;;;;;5095277;28;20028;-81
2021/09/18 06:14:32;;;;;;;1999.90;999.90;;;10.10;99.90;;;;;;5096348;28;20099;-81
2021/09/18 06:16:58;;;;;;;1999.90;999.90;;;10.20;99.90;;;;;;5094918;28;20031;-79
2021/09/18 06:19:23;;;;;;;1999.90;999.90;;;10.30;99.90;;;;;;5095448;28;20020;-80
2021/09/18 06:21:49;;;;;;;1999.90;999.90;;;10.40;99.90;;;;;;5094996;28;20072;-81
2021/09/18 06:24:15;;;;;;;1999.90;999.90;;;10.50;99.90;;;;;;5095053;28;20023;-84
2021/09/18 06:26:41;;;;;;;1999.90;999.90;;;10.60;99.90;;;;;;5096515;28;20048;-84
2021/09/18 06:29:08;;;;;;;1999.90;999.90;;;10.70;99.90;;;;;;5096425;28;20024;-80
2021/09/18 06:31:34;;;;;;;1999.90;999.90;;;10.80;99.90;;;;;;5095244;28;20024;-83
2021/09/18 06:34:00;;;;;;;1999.90;999.90;;;10.90;99.90;;;;;;5095463;28;20032;-81
2021/09/18 06:36:26;;;;;;;1999.90;999.90;;;11.00;99.90;;;;;;5094941;28;20020;-81
2021/09/18 06:38:51;;;;;;;1999.90;999.90;;;11.10;99.90;;;;;;5094935;28;20038;-79
2021/09/18 06:41:17;;;;;;;1999.90;999.90;;;11.30;99.90;;;;;;5096311;28;20028;-82
2021/09/18 06:43:43;;;;;;;1999.90;999.90;;;11.40;99.90;;;;;;5094983;28;20089;-80
2021/09/18 06:46:08;;;;;;;1999.90;999.90;;;11.60;99.90;;;;;;5094954;28;20032;-84
2021/09/18 06:48:34;;;;;;;1999.90;999.90;;;11.90;99.90;;;;;;5094993;28;20024;-82
2021/09/18 06:51:00;;;;;;;1999.90;999.90;;;12.00;99.90;;;;;;5094650;28;20111;-83
2021/09/18 06:53:25;;;;;;;1999.90;999.90;;;12.20;99.90;;;;;;5094633;28;20421;-85
2021/09/18 06:55:51;;;;;;;1999.90;999.90;;;12.40;99.90;;;;;;5095902;28;20434;-83
2021/09/18 06:58:17;;;;;;;1999.90;999.90;;;12.50;99.90;;;;;;5095037;28;20032;-85
2021/09/18 07:00:42;;;;;;;1999.90;999.90;;;12.60;99.90;;;;;;5094689;28;20387;-82
2021/09/18 07:03:08;;;;;;;1999.90;999.90;;;12.80;99.90;;;;;;5094592;28;20024;-82
2021/09/18 07:05:34;;;;;;;1999.90;999.90;;;12.90;99.90;;;;;;5095817;28;20028;-82
2021/09/18 07:08:00;;;;;;;1999.90;999.90;;;13.10;99.90;;;;;;5095704;28;20028;-83
2021/09/18 07:10:26;;;;;;;1999.90;999.90;;;13.20;99.90;;;;;;5095614;28;20025;-85
2021/09/18 07:12:52;;;;;;;1999.90;999.90;;;13.40;99.90;;;;;;5094238;28;20024;-79
2021/09/18 07:15:18;;;;;;;1999.90;999.90;;;13.40;99.90;;;;;;5094458;28;20043;-79
2021/09/18 07:17:44;;;;;;;1999.90;999.90;;;13.50;99.90;;;;;;5093159;28;20024;-80
2021/09/18 07:20:11;;;;;;;1999.90;999.90;;;13.70;99.90;;;;;;5095327;28;20029;-83
2021/09/18 07:22:37;;;;;;;1999.90;999.90;;;13.90;99.90;;;;;;5094068;28;20048;-85
2021/09/18 07:25:04;;;;;;;1999.90;999.90;;;14.10;99.90;;;;;;5093612;28;20062;-81
2021/09/18 07:27:29;;;;;;;1999.90;999.90;;;14.20;99.90;;;;;;5093621;28;20024;-84
2021/09/18 07:29:57;;;;;;;1999.90;999.90;;;14.70;99.90;;;;;;5093915;28;20119;-87
2021/09/18 07:32:24;;;;;;;1999.90;999.90;;;15.10;99.90;;;;;;5094155;28;20074;-79
2021/09/18 07:34:50;;;;;;;1999.90;999.90;;;16.70;99.90;;;;;;5093262;28;20027;-79
2021/09/18 07:37:16;;;;;;;1999.90;999.90;;;17.10;99.90;;;;;;5093243;28;20020;-82
2021/09/18 07:39:42;;;;;;;1999.90;999.90;;;17.70;99.90;;;;;;5093117;28;20098;-81
2021/09/18 07:42:08;;;;;;;1999.90;999.90;;;17.80;94.40;;;;;;5095036;28;20024;-78
2021/09/18 07:44:33;;;;;;;1999.90;999.90;;;17.70;94.20;;;;;;5093125;28;20106;-79
2021/09/18 07:46:59;;;;;;;1999.90;999.90;;;17.80;94.80;;;;;;5093227;28;20024;-79
2021/09/18 07:49:25;;;;;;;1999.90;999.90;;;18.20;94.40;;;;;;5093041;28;20027;-79
2021/09/18 07:51:55;;;;;;;1999.90;999.90;;;18.40;95.20;;;;;;5093870;28;20016;-85
2021/09/18 07:54:21;;;;;;;1999.90;999.90;;;18.60;93.60;;;;;;5094161;28;20025;-83
2021/09/18 07:56:46;;;;;;;1999.90;999.90;;;18.60;92.00;;;;;;5096232;28;20078;-81
2021/09/18 07:59:12;;;;;;;1999.90;999.90;;;18.70;91.50;;;;;;5099026;28;20045;-84
2021/09/18 08:01:38;;;;;;;1999.90;999.90;;;18.80;90.10;;;;;;5093695;28;20012;-81
2021/09/18 08:04:04;;;;;;;1999.90;999.90;;;18.70;88.00;;;;;;5094333;28;20032;-77
2021/09/18 08:06:31;;;;;;;1999.90;999.90;;;18.80;86.50;;;;;;5093439;28;20036;-81
2021/09/18 08:08:57;;;;;;;1999.90;999.90;;;18.80;85.10;;;;;;5094891;28;20034;-79
2021/09/18 08:11:24;;;;;;;1999.90;999.90;;;18.90;84.70;;;;;;5093600;28;20016;-89
2021/09/18 08:13:51;;;;;;;1999.90;999.90;;;18.90;83.30;;;;;;5093821;28;20475;-79
2021/09/18 08:16:17;;;;;;;1999.90;999.90;;;19.00;83.00;;;;;;5093089;28;20024;-82
2021/09/18 08:18:43;;;;;;;1999.90;999.90;;;19.00;82.60;;;;;;5094236;28;20024;-80
2021/09/18 08:21:09;;;;;;;1999.90;999.90;;;19.00;82.60;;;;;;5101310;28;20036;-81
2021/09/18 08:23:35;;;;;;;1999.90;999.90;;;19.00;80.50;;;;;;5099139;28;20053;-81
2021/09/18 08:26:00;;;;;;;1999.90;999.90;;;19.00;80.80;;;;;;5094333;28;20475;-79
2021/09/18 08:28:26;;;;;;;1999.90;999.90;;;19.00;77.00;;;;;;5094677;28;20483;-81
2021/09/18 08:30:52;;;;;;;1999.90;999.90;;;19.10;77.80;;;;;;5092104;28;20160;-81
2021/09/18 08:33:17;;;;;;;1999.90;999.90;;;19.10;79.30;;;;;;5092055;28;20077;-78
2021/09/18 08:35:43;;;;;;;1999.90;999.90;;;19.20;78.50;;;;;;5091544;28;20031;-78
2021/09/18 08:38:09;;;;;;;1999.90;999.90;;;19.10;78.00;;;;;;5091502;28;20386;-77
2021/09/18 08:40:37;;;;;;;1999.90;999.90;;;19.20;77.70;;;;;;5092723;28;20093;-77
2021/09/18 08:43:04;;;;;;;1999.90;999.90;;;19.30;77.40;;;;;;5092565;28;20073;-78
2021/09/18 08:45:31;;;;;;;1999.90;999.90;;;19.30;77.10;;;;;;5092838;28;20037;-79
2021/09/18 08:47:59;;;;;;;1999.90;999.90;;;19.40;76.10;;;;;;5092107;28;20027;-78
2021/09/18 08:50:25;;;;;;;1999.90;999.90;;;19.50;77.70;;;;;;5091418;28;20118;-78
2021/09/18 08:52:52;;;;;;;1999.90;999.90;;;19.60;75.70;;;;;;5091148;28;20111;-78
2021/09/18 08:55:18;;;;;;;1999.90;999.90;;;19.50;77.20;;;;;;5092596;28;20073;-77
2021/09/18 08:57:44;;;;;;;1999.90;999.90;;;19.60;76.60;;;;;;5092986;28;20418;-77
2021/09/18 09:00:32;;;;;;;1999.90;999.90;;;19.70;77.90;;;;;;5090975;28;20066;-79
2021/09/18 09:03:04;;;;;;;1999.90;999.90;;;19.70;76.60;;;;;;5092691;28;20032;-77
2021/09/18 09:05:32;;;;;;;1999.90;999.90;;;19.80;76.90;;;;;;5092208;28;20059;-77
2021/09/18 09:08:16;;;;;;;1999.90;999.90;;;19.90;77.20;;;;;;5092133;28;20024;-78
2021/09/18 09:10:45;;;;;;;1999.90;999.90;;;19.90;76.00;;;;;;5091681;28;20032;-78
2021/09/18 09:13:22;;;;;;;1999.90;999.90;;;20.00;77.40;;;;;;5091621;28;20099;-76
2021/09/18 09:15:51;;;;;;;1999.90;999.90;;;20.10;78.50;;;;;;5091581;28;20028;-77
2021/09/18 09:18:18;;;;;;;1999.90;999.90;;;20.30;76.50;;;;;;5091423;28;20374;-78
2021/09/18 09:20:45;;;;;;;1999.90;999.90;;;20.40;77.00;;;;;;5091699;28;20043;-80
2021/09/18 09:23:29;;;;;;;1999.90;999.90;;;20.50;75.10;;;;;;5091263;28;20082;-77
2021/09/18 09:25:56;;;;;;;1999.90;999.90;;;20.60;74.40;;;;;;5091186;28;20063;-78
2021/09/18 09:28:41;;;;;;;1999.90;999.90;;;20.60;76.00;;;;;;5091792;28;20108;-78
2021/09/18 09:31:29;;;;;;;1999.90;999.90;;;20.60;75.80;;;;;;5092505;28;20039;-78
2021/09/18 09:34:03;;;;;;;1999.90;999.90;;;20.80;75.30;;;;;;5091238;28;20482;-79
2021/09/18 09:36:30;;;;;;;1999.90;999.90;;;20.90;73.30;;;;;;5092551;28;20039;-88
2021/09/18 09:39:01;;;;;;;1999.90;999.90;;;20.80;72.00;;;;;;5092980;28;20080;-81
2021/09/18 09:41:34;;;;;;;1999.90;999.90;;;20.70;71.10;;;;;;5094527;28;20368;-81
2021/09/18 09:44:07;;;;;;;1999.90;999.90;;;20.70;70.20;;;;;;5097784;28;20028;-82
2021/09/18 09:46:33;;;;;;;1999.90;999.90;;;20.70;70.90;;;;;;5097210;28;20044;-82
2021/09/18 09:49:08;;;;;;;1999.90;999.90;;;20.70;70.20;;;;;;5097354;28;20020;-80
2021/09/18 09:51:34;;;;;;;1999.90;999.90;;;20.80;70.40;;;;;;5097036;28;20024;-84
2021/09/18 09:54:22;;;;;;;1999.90;999.90;;;20.90;69.00;;;;;;5096490;28;20027;-78
2021/09/18 09:57:03;;;;;;;1999.90;999.90;;;20.90;67.60;;;;;;5095492;28;20402;-77
2021/09/18 09:59:29;;;;;;;1999.90;999.90;;;20.80;67.70;;;;;;5095346;28;20020;-78
2021/09/18 10:01:56;;;;;;;1999.90;999.90;;;21.00;68.80;;;;;;5096307;28;20563;-79
2021/09/18 10:04:21;;;;;;;1999.90;999.90;;;21.00;68.90;;;;;;5095729;28;20023;-80
2021/09/18 10:06:48;;;;;;;1999.90;999.90;;;21.00;69.50;;;;;;5094274;28;20032;-77
2021/09/18 10:09:16;;;;;;;1999.90;999.90;;;21.10;69.40;;;;;;5095391;28;20027;-77
2021/09/18 10:11:42;;;;;;;1999.90;999.90;;;21.10;69.30;;;;;;5095461;28;20111;-80
2021/09/18 10:14:11;;;;;;;1999.90;999.90;;;21.20;69.30;;;;;;5095217;28;20024;-79
2021/09/18 10:16:38;;;;;;;1999.90;999.90;;;21.30;70.00;;;;;;5095372;28;20041;-80
2021/09/18 10:19:07;;;;;;;1999.90;999.90;;;21.20;68.70;;;;;;5093960;28;20031;-80
2021/09/18 10:24:18;;;;;;;1999.90;999.90;;;21.40;68.20;;;;;;5095405;28;20110;-80
2021/09/18 10:26:43;;;;;;;1999.90;999.90;;;21.50;66.50;;;;;;5095214;28;20024;-78
2021/09/18 10:29:09;;;;;;;1999.90;999.90;;;21.40;66.10;;;;;;5095012;28;20016;-74
2021/09/18 10:31:35;;;;;;;1999.90;999.90;;;21.20;65.20;;;;;;5095483;28;20035;-78
2021/09/18 10:34:21;;;;;;;1999.90;999.90;;;21.10;67.30;;;;;;5096167;28;20016;-79
2021/09/18 10:36:48;;;;;;;1999.90;999.90;;;21.20;66.40;;;;;;5095924;28;20494;-77
2021/09/18 10:39:17;;;;;;;1999.90;999.90;;;21.30;66.40;;;;;;5094905;28;20429;-76
2021/09/18 10:41:47;;;;;;;1999.90;999.90;;;21.50;67.30;;;;;;5094604;28;20383;-77
2021/09/18 10:44:15;;;;;;;1999.90;999.90;;;21.80;65.50;;;;;;5094845;28;20069;-76
2021/09/18 10:46:42;;;;;;;1999.90;999.90;;;21.90;63.20;;;;;;5096320;28;20028;-76
2021/09/18 10:52:16;;;;;;;1999.90;999.90;;;22.10;62.10;;;;;;5095377;28;20028;-76
2021/09/18 10:55:05;;;;;;;1999.90;999.90;;;22.30;61.20;;;;;;5095155;28;20039;-76
2021/09/18 10:57:46;;;;;;;1999.90;999.90;;;22.30;60.90;;;;;;5094064;28;20024;-76
2021/09/18 11:00:39;;;;;;;1999.90;999.90;;;22.10;61.10;;;;;;5093858;28;20024;-77
2021/09/18 11:03:04;;;;;;;1999.90;999.90;;;22.10;62.10;;;;;;5094971;28;20028;-78
2021/09/18 11:05:36;;;;;;;1999.90;999.90;;;21.90;60.80;;;;;;5095289;28;20042;-80
2021/09/18 11:08:15;;;;;;;1999.90;999.90;;;21.80;59.30;;;;;;5095064;28;20024;-78
2021/09/18 11:10:52;;;;;;;1999.90;999.90;;;21.60;61.00;;;;;;5093611;28;20149;-79
2021/09/18 11:13:22;;;;;;;1999.90;999.90;;;21.70;61.20;;;;;;5093406;28;20016;-78
2021/09/18 11:15:59;;;;;;;1999.90;999.90;;;21.70;62.60;;;;;;5093653;28;20024;-78
2021/09/18 11:18:39;;;;;;;1999.90;999.90;;;21.80;63.00;;;;;;5093482;28;20012;-76
2021/09/18 11:21:11;;;;;;;1999.90;999.90;;;22.20;64.10;;;;;;5093383;28;20044;-78
2021/09/18 11:23:38;;;;;;;1999.90;999.90;;;22.30;62.60;;;;;;5095135;28;20035;-76
2021/09/18 11:26:39;;;;;;;1999.90;999.90;;;22.50;63.30;;;;;;5093440;28;20660;-77
2021/09/18 11:29:18;;;;;;;1999.90;999.90;;;22.50;60.70;;;;;;5082997;28;20036;-77
2021/09/18 11:32:14;;;;;;;1999.90;999.90;;;22.50;60.10;;;;;;5093385;28;20028;-79
2021/09/18 11:34:42;;;;;;;1999.90;999.90;;;22.40;60.20;;;;;;5090063;28;20040;-80
2021/09/18 11:37:11;;;;;;;1999.90;999.90;;;22.30;60.60;;;;;;5093971;28;20375;-80
2021/09/18 11:39:38;;;;;;;1999.90;999.90;;;22.10;59.10;;;;;;5093488;28;20024;-81
2021/09/18 11:42:10;;;;;;;1999.90;999.90;;;21.90;59.30;;;;;;5093878;28;20035;-81
2021/09/18 11:44:35;;;;;;;1999.90;999.90;;;21.70;59.10;;;;;;5093476;28;20024;-79
2021/09/18 11:47:05;;;;;;;1999.90;999.90;;;21.60;59.40;;;;;;5095072;28;20028;-81
2021/09/18 11:49:31;;;;;;;1999.90;999.90;;;21.50;60.10;;;;;;5093445;28;20088;-80
2021/09/18 11:52:01;;;;;;;1999.90;999.90;;;21.50;60.40;;;;;;5094570;28;20095;-80
2021/09/18 11:54:27;;;;;;;1999.90;999.90;;;21.60;62.00;;;;;;5092998;28;20101;-81
2021/09/18 11:56:52;;;;;;;1999.90;999.90;;;21.80;61.50;;;;;;5093776;28;20468;-86
2021/09/18 11:59:18;;;;;;;1999.90;999.90;;;22.00;60.00;;;;;;5095209;28;20031;-87
2021/09/18 12:01:48;;;;;;;1999.90;999.90;;;22.20;59.20;;;;;;5095025;28;20080;-86
2021/09/18 12:04:14;;;;;;;1999.90;999.90;;;22.20;59.00;;;;;;5094511;28;20024;-84
2021/09/18 12:06:40;;;;;;;1999.90;999.90;;;22.10;59.20;;;;;;5094795;28;20028;-84
2021/09/18 12:09:06;;;;;;;1999.90;999.90;;;22.10;58.80;;;;;;5095251;28;20180;-83
2021/09/18 12:11:38;;;;;;;1999.90;999.90;;;22.00;58.80;;;;;;5095215;28;20027;-84